createdAt,value
2022-12-18T00:00:55.022Z,24.65
2022-12-18T00:03:39.234Z,13.40
2022-12-18T00:06:18.094Z,22.70
2022-12-18T00:09:45.734Z,21.00
2022-12-18T00:11:52.247Z,18.35
2022-12-18T00:14:46.103Z,20.60
2022-12-18T00:17:24.681Z,29.20
2022-12-18T00:20:01.263Z,24.13
2022-12-18T00:22:38.906Z,13.82
2022-12-18T00:25:12.247Z,14.15
2022-12-18T00:27:48.578Z,17.75
2022-12-18T00:30:21.834Z,21.88
2022-12-18T00:32:56.496Z,20.23
2022-12-18T00:38:02.957Z,17.73
2022-12-18T00:40:42.403Z,11.48
2022-12-18T00:43:10.671Z,34.33
2022-12-18T00:45:44.423Z,23.55
2022-12-18T00:48:20.209Z,27.02
2022-12-18T00:50:52.460Z,27.30
2022-12-18T00:53:26.642Z,24.95
2022-12-18T00:56:06.564Z,25.67
2022-12-18T00:58:40.369Z,13.27
2022-12-18T01:01:11.959Z,23.90
2022-12-18T01:03:42.865Z,16.85
2022-12-18T01:06:21.162Z,16.67
2022-12-18T01:09:04.070Z,20.00
2022-12-18T01:11:46.610Z,22.77
2022-12-18T01:17:38.759Z,18.88
2022-12-18T01:20:28.367Z,16.20
2022-12-18T01:23:21.558Z,13.13
2022-12-18T01:26:07.675Z,17.60
2022-12-18T01:29:26.934Z,19.35
2022-12-18T01:31:33.843Z,24.98
2022-12-18T01:34:11.015Z,20.15
2022-12-18T01:36:46.758Z,31.83
2022-12-18T01:39:46.272Z,28.25
2022-12-18T01:42:25.051Z,26.08
2022-12-18T01:45:28.551Z,23.30
2022-12-18T01:48:21.369Z,14.75
2022-12-18T01:51:24.599Z,34.45
2022-12-18T01:54:04.006Z,24.60
2022-12-18T01:56:43.332Z,17.73
2022-12-18T01:59:21.588Z,24.52
2022-12-18T02:01:50.108Z,18.73
2022-12-18T02:04:29.217Z,23.85
2022-12-18T02:07:21.587Z,23.02
2022-12-18T02:10:01.583Z,22.85
2022-12-18T02:13:06.910Z,22.70
2022-12-18T02:15:50.944Z,17.55
2022-12-18T02:18:32.364Z,25.75
2022-12-18T02:21:23.148Z,30.70
2022-12-18T02:24:38.355Z,23.67
2022-12-18T02:27:10.647Z,23.35
2022-12-18T02:29:58.951Z,23.33
2022-12-18T02:32:55.190Z,14.88
2022-12-18T02:35:32.040Z,18.08
2022-12-18T02:38:05.456Z,17.25
2022-12-18T02:40:40.442Z,22.83
2022-12-18T02:43:18.677Z,21.40
2022-12-18T02:45:56.936Z,20.63
2022-12-18T02:48:31.702Z,19.08
2022-12-18T02:51:22.039Z,20.67
2022-12-18T02:54:10.514Z,20.83
2022-12-18T02:56:53.043Z,22.97
2022-12-18T02:59:36.444Z,13.27
2022-12-18T03:02:15.811Z,20.20
2022-12-18T03:05:14.910Z,14.85
2022-12-18T03:08:02.342Z,20.38
2022-12-18T03:10:41.744Z,17.90
2022-12-18T03:13:27.636Z,25.77
2022-12-18T03:15:58.530Z,14.00
2022-12-18T03:18:48.658Z,15.63
2022-12-18T03:21:22.088Z,15.38
2022-12-18T03:23:52.087Z,15.00
2022-12-18T03:26:26.014Z,10.05
2022-12-18T03:29:03.946Z,13.10
2022-12-18T03:34:24.774Z,23.98
2022-12-18T03:36:53.954Z,15.27
2022-12-18T03:39:24.981Z,10.75
2022-12-18T03:42:12.405Z,22.65
2022-12-18T03:45:12.242Z,9.38
2022-12-18T03:48:10.277Z,13.90
2022-12-18T03:50:58.666Z,17.45
2022-12-18T03:53:37.097Z,15.95
2022-12-18T03:56:13.528Z,17.85
2022-12-18T03:58:46.004Z,15.82
2022-12-18T04:01:32.567Z,15.18
2022-12-18T04:04:05.207Z,11.73
2022-12-18T04:06:40.759Z,14.07
2022-12-18T04:09:15.164Z,17.02
2022-12-18T04:11:47.798Z,18.17
2022-12-18T04:14:18.164Z,10.60
2022-12-18T04:16:49.645Z,15.63
2022-12-18T04:19:20.039Z,14.05
2022-12-18T04:21:50.985Z,17.33
2022-12-18T04:24:19.793Z,10.38
2022-12-18T04:27:01.890Z,10.70
2022-12-18T04:29:34.263Z,16.73
2022-12-18T04:32:02.210Z,18.92
2022-12-18T04:34:32.151Z,8.68
2022-12-18T04:37:00.008Z,15.02
2022-12-18T04:39:28.047Z,10.77
2022-12-18T04:42:00.690Z,9.05
2022-12-18T04:44:29.436Z,10.02
2022-12-18T04:46:57.637Z,19.45
2022-12-18T04:49:28.416Z,12.98
2022-12-18T04:51:56.427Z,11.45
2022-12-18T04:54:25.194Z,12.75
2022-12-18T04:56:53.189Z,8.63
2022-12-18T04:59:21.652Z,18.08
2022-12-18T05:01:49.849Z,9.82
2022-12-18T05:04:17.620Z,9.90
2022-12-18T05:06:54.900Z,14.63
2022-12-18T05:09:22.499Z,11.50
2022-12-18T05:11:53.276Z,7.22
2022-12-18T05:14:24.247Z,9.93
2022-12-18T05:16:56.725Z,13.70
2022-12-18T05:19:27.081Z,13.70
2022-12-18T05:21:54.710Z,11.27
2022-12-18T05:24:22.735Z,5.90
2022-12-18T05:26:50.558Z,10.48
2022-12-18T05:29:20.895Z,6.90
2022-12-18T05:31:48.673Z,10.65
2022-12-18T05:34:16.811Z,6.57
2022-12-18T05:36:44.656Z,7.78
2022-12-18T05:39:12.620Z,10.45
2022-12-18T05:41:40.265Z,8.18
2022-12-18T05:44:09.518Z,8.30
2022-12-18T05:46:38.818Z,11.45
2022-12-18T05:49:06.494Z,8.18
2022-12-18T05:51:34.255Z,10.00
2022-12-18T05:54:05.494Z,6.03
2022-12-18T05:56:33.455Z,7.97
2022-12-18T05:59:03.201Z,5.95
2022-12-18T06:01:39.550Z,8.98
2022-12-18T06:04:07.944Z,7.50
2022-12-18T06:09:20.340Z,6.37
2022-12-18T06:11:50.555Z,5.63
2022-12-18T06:14:22.128Z,8.02
2022-12-18T06:16:53.407Z,7.55
2022-12-18T06:19:21.631Z,7.03
2022-12-18T06:21:50.322Z,8.27
2022-12-18T06:24:22.162Z,13.55
2022-12-18T06:26:53.685Z,6.15
2022-12-18T06:29:21.710Z,8.75
2022-12-18T06:31:50.066Z,6.00
2022-12-18T06:34:17.806Z,6.82
2022-12-18T06:36:47.814Z,4.97
2022-12-18T06:39:16.598Z,7.00
2022-12-18T06:41:46.709Z,10.90
2022-12-18T06:44:21.748Z,4.57
2022-12-18T06:46:49.879Z,10.88
2022-12-18T06:52:35.300Z,6.93
2022-12-18T06:58:26.615Z,5.22
2022-12-18T07:01:08.916Z,4.38
2022-12-18T07:03:45.598Z,7.97
2022-12-18T07:06:40.134Z,5.93
2022-12-18T07:09:19.140Z,7.65
2022-12-18T07:11:56.985Z,7.32
2022-12-18T07:14:25.886Z,3.67
2022-12-18T07:17:01.272Z,9.10
2022-12-18T07:19:32.885Z,6.28
2022-12-18T07:22:00.878Z,10.52
2022-12-18T07:24:29.475Z,11.00
2022-12-18T07:26:56.899Z,5.90
2022-12-18T07:29:25.006Z,16.00
2022-12-18T07:31:54.284Z,12.65
2022-12-18T07:34:23.214Z,3.72
2022-12-18T07:36:53.510Z,8.80
2022-12-18T07:39:21.496Z,5.38
2022-12-18T07:42:14.507Z,8.98
2022-12-18T07:44:42.291Z,7.93
2022-12-18T07:47:12.177Z,6.53
2022-12-18T07:49:40.916Z,4.78
2022-12-18T07:52:10.575Z,10.18
2022-12-18T07:54:38.243Z,6.43
2022-12-18T07:57:16.443Z,5.90
2022-12-18T07:59:53.955Z,5.38
2022-12-18T08:02:21.714Z,9.20
2022-12-18T08:04:49.881Z,4.57
2022-12-18T08:07:19.747Z,6.68
2022-12-18T08:09:47.491Z,6.93
2022-12-18T08:12:20.248Z,7.63
2022-12-18T08:14:47.980Z,4.95
2022-12-18T08:17:16.188Z,5.47
2022-12-18T08:19:44.153Z,9.35
2022-12-18T08:22:11.774Z,11.70
2022-12-18T08:24:40.689Z,8.63
2022-12-18T08:29:59.748Z,6.13
2022-12-18T08:32:28.517Z,6.15
2022-12-18T08:34:56.780Z,7.38
2022-12-18T08:37:25.602Z,8.95
2022-12-18T08:39:54.631Z,5.85
2022-12-18T08:42:41.544Z,8.98
2022-12-18T08:45:10.441Z,7.28
2022-12-18T08:47:39.677Z,6.10
2022-12-18T08:50:12.440Z,8.05
2022-12-18T08:52:40.703Z,8.23
2022-12-18T08:55:10.671Z,9.88
2022-12-18T08:57:39.427Z,6.80
2022-12-18T09:00:07.985Z,13.63
2022-12-18T09:02:35.637Z,4.38
2022-12-18T09:05:03.454Z,8.77
2022-12-18T09:07:31.131Z,10.63
2022-12-18T09:09:59.664Z,4.32
2022-12-18T09:12:30.033Z,10.13
2022-12-18T09:14:59.196Z,9.02
2022-12-18T09:17:28.087Z,10.43
2022-12-18T09:19:57.036Z,8.60
2022-12-18T09:22:24.843Z,8.23
2022-12-18T09:24:54.884Z,5.40
2022-12-18T09:27:26.304Z,8.10
2022-12-18T09:29:53.924Z,5.50
2022-12-18T09:32:22.624Z,10.57
2022-12-18T09:34:51.777Z,4.88
2022-12-18T09:37:21.406Z,8.15
2022-12-18T09:39:51.068Z,7.22
2022-12-18T09:42:23.142Z,6.00
2022-12-18T09:44:54.956Z,12.02
2022-12-18T09:47:29.480Z,5.53
2022-12-18T09:50:04.611Z,7.97
2022-12-18T09:52:53.560Z,15.27
2022-12-18T09:55:37.441Z,8.27
2022-12-18T09:58:25.413Z,6.55
2022-12-18T10:00:54.307Z,6.82
2022-12-18T10:03:23.089Z,8.23
2022-12-18T10:06:15.620Z,11.57
2022-12-18T10:09:20.983Z,8.80
2022-12-18T10:12:08.754Z,8.45
2022-12-18T10:14:42.769Z,8.07
2022-12-18T10:17:30.216Z,6.57
2022-12-18T10:20:04.232Z,9.05
2022-12-18T10:23:10.831Z,9.97
2022-12-18T10:25:53.899Z,13.90
2022-12-18T10:28:23.261Z,7.15
2022-12-18T10:30:56.136Z,9.68
2022-12-18T10:33:25.749Z,8.00
2022-12-18T10:35:54.043Z,10.98
2022-12-18T10:38:29.250Z,9.15
2022-12-18T10:41:04.045Z,8.98
2022-12-18T10:46:04.908Z,8.48
2022-12-18T10:48:36.290Z,9.75
2022-12-18T10:51:12.262Z,7.13
2022-12-18T10:53:44.705Z,9.70
2022-12-18T10:56:13.483Z,7.18
2022-12-18T10:59:51.639Z,11.00
2022-12-18T11:05:40.726Z,13.43
2022-12-18T11:08:23.837Z,9.07
2022-12-18T11:10:52.003Z,10.65
2022-12-18T11:13:41.643Z,7.35
2022-12-18T11:16:24.614Z,10.57
2022-12-18T11:19:09.579Z,7.18
2022-12-18T11:30:44.181Z,6.47
2022-12-18T11:33:31.936Z,11.82
2022-12-18T11:36:23.759Z,16.20
2022-12-18T11:38:55.971Z,8.30
2022-12-18T11:42:04.077Z,10.27
2022-12-18T11:44:56.263Z,9.00
2022-12-18T11:48:17.775Z,6.93
2022-12-18T11:51:30.255Z,7.88
2022-12-18T12:01:18.622Z,10.20
2022-12-18T12:05:04.253Z,9.85
2022-12-18T12:12:05.767Z,4.38
2022-12-18T12:15:54.714Z,7.18
2022-12-18T12:18:57.013Z,9.75
2022-12-18T12:21:50.184Z,9.85
2022-12-18T12:24:46.969Z,8.20
2022-12-18T12:27:27.212Z,7.72
2022-12-18T12:30:12.130Z,9.25
2022-12-18T12:32:57.946Z,9.45
2022-12-18T12:35:57.246Z,13.35
2022-12-18T12:38:33.050Z,5.68
2022-12-18T12:41:40.822Z,15.40
2022-12-18T12:44:17.207Z,7.30
2022-12-18T12:46:56.334Z,8.73
2022-12-18T12:49:28.936Z,7.38
2022-12-18T12:52:23.034Z,12.05
2022-12-18T12:54:52.136Z,10.18
2022-12-18T12:57:37.564Z,13.30
2022-12-18T13:00:15.692Z,12.18
2022-12-18T13:03:06.869Z,17.45
2022-12-18T13:05:55.773Z,6.57
2022-12-18T13:08:33.331Z,12.50
2022-12-18T13:11:21.812Z,11.10
2022-12-18T13:13:58.012Z,9.20
2022-12-18T13:16:30.495Z,10.45
2022-12-18T13:19:00.580Z,7.53
2022-12-18T13:21:34.581Z,12.85
2022-12-18T13:24:28.643Z,10.10
2022-12-18T13:26:56.839Z,10.93
2022-12-18T13:29:48.516Z,11.68
2022-12-18T13:32:24.095Z,9.07
2022-12-18T13:35:23.493Z,9.02
2022-12-18T13:37:56.491Z,12.05
2022-12-18T13:40:49.897Z,8.25
2022-12-18T13:43:23.037Z,8.43
2022-12-18T13:46:46.257Z,11.43
2022-12-18T13:49:51.875Z,8.43
2022-12-18T13:52:43.428Z,9.77
2022-12-18T13:55:21.359Z,10.45
2022-12-18T13:57:50.678Z,9.63
2022-12-18T14:00:48.054Z,13.23
2022-12-18T14:03:45.984Z,8.45
2022-12-18T14:06:18.367Z,11.02
2022-12-18T14:08:48.736Z,10.25
2022-12-18T14:11:26.338Z,11.50
2022-12-18T14:13:55.341Z,13.02
2022-12-18T14:16:35.988Z,12.90
2022-12-18T14:19:15.083Z,7.60
2022-12-18T14:22:07.389Z,11.15
2022-12-18T14:24:35.660Z,8.55
2022-12-18T14:27:28.922Z,9.55
2022-12-18T14:30:25.797Z,11.27
2022-12-18T14:33:24.894Z,10.20
2022-12-18T14:36:17.482Z,10.52
2022-12-18T14:38:57.754Z,11.27
2022-12-18T14:41:33.228Z,13.68
2022-12-18T14:44:12.928Z,11.13
2022-12-18T14:47:10.487Z,14.55
2022-12-18T14:49:43.676Z,8.43
2022-12-18T14:52:35.811Z,10.40
2022-12-18T14:55:09.457Z,12.70
2022-12-18T14:57:42.945Z,8.35
2022-12-18T15:00:22.888Z,10.20
2022-12-18T15:03:02.810Z,12.48
2022-12-18T15:05:55.461Z,7.55
2022-12-18T15:08:37.260Z,11.23
2022-12-18T15:11:27.668Z,14.55
2022-12-18T15:13:56.287Z,11.55
2022-12-18T15:16:25.580Z,11.75
2022-12-18T15:18:54.564Z,15.63
2022-12-18T15:21:22.687Z,14.73
2022-12-18T15:23:54.540Z,9.85
2022-12-18T15:26:24.178Z,11.77
2022-12-18T15:28:57.351Z,9.27
2022-12-18T15:31:37.585Z,9.85
2022-12-18T15:34:20.408Z,9.93
2022-12-18T15:36:52.216Z,9.80
2022-12-18T15:39:25.701Z,8.88
2022-12-18T15:42:38.984Z,14.82
2022-12-18T15:45:13.016Z,9.80
2022-12-18T15:50:37.407Z,10.90
2022-12-18T15:53:26.487Z,7.85
2022-12-18T15:56:39.062Z,12.98
2022-12-18T15:59:25.761Z,14.15
2022-12-18T16:01:57.635Z,12.77
2022-12-18T16:04:34.334Z,8.32
2022-12-18T16:07:22.997Z,9.52
2022-12-18T16:09:51.184Z,9.27
2022-12-18T16:12:41.030Z,11.10
2022-12-18T16:15:24.085Z,14.90
2022-12-18T16:18:19.306Z,14.63
2022-12-18T16:20:50.562Z,6.93
2022-12-18T16:23:22.568Z,10.20
2022-12-18T16:25:58.235Z,13.60
2022-12-18T16:31:25.264Z,10.85
2022-12-18T16:34:26.828Z,16.52
2022-12-18T16:37:07.887Z,10.13
2022-12-18T16:39:54.425Z,11.18
2022-12-18T16:42:28.298Z,8.68
2022-12-18T16:45:15.142Z,11.27
2022-12-18T16:47:53.096Z,12.80
2022-12-18T16:50:55.717Z,13.38
2022-12-18T16:53:52.048Z,8.48
2022-12-18T16:56:45.325Z,8.73
2022-12-18T17:00:05.923Z,11.90
2022-12-18T17:05:27.801Z,10.40
2022-12-18T17:07:58.712Z,12.88
2022-12-18T17:10:26.801Z,12.80
2022-12-18T17:13:08.758Z,12.20
2022-12-18T17:15:53.652Z,13.10
2022-12-18T17:21:37.048Z,8.82
2022-12-18T17:24:08.818Z,13.55
2022-12-18T17:26:40.659Z,15.13
2022-12-18T17:29:28.033Z,10.32
2022-12-18T17:31:56.058Z,9.73
2022-12-18T17:34:27.636Z,7.95
2022-12-18T17:36:57.360Z,12.40
2022-12-18T17:39:33.903Z,9.48
2022-12-18T17:42:53.670Z,17.30
2022-12-18T17:45:32.244Z,13.90
2022-12-18T17:48:52.913Z,22.42
2022-12-18T17:51:39.887Z,15.20
2022-12-18T18:05:32.765Z,10.05
2022-12-18T18:12:57.881Z,13.82
2022-12-18T18:20:06.271Z,9.15
2022-12-18T18:22:34.224Z,12.35
2022-12-18T18:25:48.809Z,13.18
2022-12-18T18:32:17.933Z,10.88
2022-12-18T18:35:53.283Z,11.80
2022-12-18T18:38:34.333Z,10.93
2022-12-18T18:48:02.222Z,12.32
2022-12-18T18:52:45.250Z,11.32
2022-12-18T18:56:45.507Z,15.60
2022-12-18T19:03:01.416Z,9.25
2022-12-18T19:06:07.077Z,11.27
2022-12-18T19:12:38.950Z,11.10
2022-12-18T19:15:59.162Z,12.88
2022-12-18T19:18:43.795Z,11.95
2022-12-18T19:25:43.239Z,9.68
2022-12-18T19:28:52.112Z,13.80
2022-12-18T19:32:32.499Z,12.40
2022-12-18T19:35:23.092Z,17.80
2022-12-18T19:38:31.371Z,10.75
2022-12-18T19:41:02.804Z,8.25
2022-12-18T19:43:45.766Z,11.77
2022-12-18T19:46:30.251Z,16.83
2022-12-18T19:49:06.698Z,17.92
2022-12-18T19:56:03.658Z,9.32
2022-12-18T19:58:54.691Z,11.30
2022-12-18T20:01:27.875Z,14.20
2022-12-18T20:03:57.453Z,11.48
2022-12-18T20:07:19.724Z,13.57
2022-12-18T20:10:13.209Z,13.80
2022-12-18T20:12:51.819Z,11.63
2022-12-18T20:16:22.924Z,11.38
2022-12-18T20:25:58.451Z,11.68
2022-12-18T20:28:36.263Z,12.82
2022-12-18T20:35:45.038Z,14.60
2022-12-18T20:38:26.382Z,17.98
2022-12-18T20:41:15.691Z,12.85
2022-12-18T20:46:56.636Z,15.15
2022-12-18T20:49:26.723Z,12.50
2022-12-18T20:52:04.174Z,13.23
2022-12-18T20:54:37.769Z,11.23
2022-12-18T20:57:42.179Z,11.82
2022-12-18T21:18:50.524Z,25.95
2022-12-18T21:21:26.810Z,12.27
2022-12-18T21:24:21.962Z,14.88
2022-12-18T21:55:11.952Z,23.58
2022-12-18T21:57:45.565Z,15.35
2022-12-18T22:00:25.126Z,15.88
2022-12-18T22:03:17.992Z,16.08
2022-12-18T22:05:43.195Z,15.43
2022-12-18T22:08:15.155Z,15.27
2022-12-18T22:10:45.131Z,16.40
2022-12-18T22:13:15.204Z,16.20
2022-12-18T22:15:46.490Z,15.65
2022-12-18T22:18:17.838Z,18.15
2022-12-18T22:21:05.922Z,16.75
2022-12-18T22:23:39.739Z,13.43
2022-12-18T22:26:19.486Z,16.88
2022-12-18T22:29:14.825Z,19.85
2022-12-18T22:31:51.854Z,20.17
2022-12-18T22:34:27.144Z,15.85
2022-12-18T22:37:01.591Z,18.67
2022-12-18T22:39:32.273Z,13.07
2022-12-18T22:42:00.144Z,14.25
2022-12-18T22:44:40.187Z,12.82
2022-12-18T22:47:16.978Z,17.13
2022-12-18T22:49:54.615Z,19.55
2022-12-18T22:52:31.979Z,15.02
2022-12-18T22:55:04.711Z,16.20
2022-12-18T22:57:34.615Z,17.27
2022-12-18T23:00:10.935Z,17.67
2022-12-18T23:02:41.479Z,18.65
2022-12-18T23:05:14.509Z,21.25
2022-12-18T23:07:46.768Z,16.38
2022-12-18T23:10:30.974Z,12.80
2022-12-18T23:13:05.446Z,16.65
2022-12-18T23:15:41.670Z,16.33
2022-12-18T23:18:16.630Z,13.90
2022-12-18T23:20:50.174Z,13.05
2022-12-18T23:23:30.114Z,16.48
2022-12-18T23:26:58.372Z,12.85
2022-12-18T23:30:07.235Z,11.32
2022-12-18T23:35:57.909Z,15.10
2022-12-18T23:39:15.468Z,14.55
2022-12-18T23:41:39.073Z,12.88
2022-12-18T23:47:44.907Z,16.65
2022-12-18T23:51:36.456Z,19.17
2022-12-18T23:53:51.281Z,19.25
2022-12-18T23:56:47.434Z,21.02
